Forestburg, New York
Current Conditions -  °F | °C
As of 10:35 PM on Friday 19 Dec 2014 (Local Time) from KMSV Reporting Station
Overcast Overcast  
Wind Chill: 13°   Ceiling: 1300
Heat Index: 25°   Visibility: 10mi
Dew Point: 21°   Wind: 14mph
Humidity: 86%   Direction: 330°NNW
Pressure: 30.13"   Gusts: 20mph
Location:  41.5947°N, 74.7078°W
Report Text: KMSV 200335Z AUTO 33012G17KT 10SM OVC013 M04/M06 A3013 RMK AO1
Loading
Personal Weather Stations






























Interactive Weather Map New forecast layout! Learn more

10-Day Weather Forecast

Advertisements
Track Severe Weather on mobile